Time;durP1;ratioP1;P1;durP2;ratioP2;P2;SDS_P1;SDS_P2;PMS_P1;PMS_P2;Temp;Humidity;BMP_temperature;BMP_pressure;BME280_temperature;BME280_humidity;BME280_pressure;Samples;Min_cycle;Max_cycle;Signal;HPM_P1;HPM_P2
2024/01/24 00:00:06;;;;;;;;;;;;;;;14.80;92.33;100874.72;7352976;19;19915;-67
2024/01/24 00:02:33;;;;;;;;;;;;;;;14.82;92.29;100898.38;7348264;19;20356;-68
2024/01/24 00:05:00;;;;;;;;;;;;;;;14.79;90.37;100880.19;7344058;19;19930;-67
2024/01/24 00:07:28;;;;;;;;;;;;;;;14.76;89.29;100884.03;7354139;19;19919;-67
2024/01/24 00:09:55;;;;;;;;;;;;;;;14.73;88.09;100886.22;7345704;19;19929;-67
2024/01/24 00:12:22;;;;;;;;;;;;;;;14.71;87.38;100894.34;7351895;19;20255;-69
2024/01/24 00:14:49;;;;;;;;;;;;;;;14.71;87.65;100912.88;7347142;19;20337;-67
2024/01/24 00:17:17;;;;;;;;;;;;;;;14.69;86.55;100922.81;7350105;19;20775;-67
2024/01/24 00:19:44;;;;;;;;;;;;;;;14.70;87.16;100924.47;7346871;19;20276;-67
2024/01/24 00:22:11;;;;;;;;;;;;;;;14.67;86.34;100910.75;7352251;19;19915;-67
2024/01/24 00:24:39;;;;;;;;;;;;;;;14.64;85.60;100916.38;7352813;19;20397;-67
2024/01/24 00:27:06;;;;;;;;;;;;;;;14.64;85.28;100932.28;7346117;19;20015;-68
2024/01/24 00:29:33;;;;;;;;;;;;;;;14.61;85.06;100912.28;7345070;19;19918;-68
2024/01/24 00:32:05;;;;;;;;;;;;;;;14.64;85.32;100903.16;7341283;19;20737;-67
2024/01/24 00:34:33;;;;;;;;;;;;;;;14.57;84.22;100905.69;7339834;19;19910;-68
2024/01/24 00:37:00;;;;;;;;;;;;;;;14.56;84.57;100925.22;7348725;19;20566;-67
2024/01/24 00:39:27;;;;;;;;;;;;;;;14.53;84.71;100936.97;7329903;19;21258;-67
2024/01/24 00:41:58;;;;;;;;;;;;;;;14.54;84.89;100945.75;7345998;19;19918;-67
2024/01/24 00:44:25;;;;;;;;;;;;;;;14.54;83.35;100951.88;7347234;19;19911;-66
2024/01/24 00:46:52;;;;;;;;;;;;;;;14.55;84.12;100955.34;7355833;19;21644;-66
2024/01/24 00:49:19;;;;;;;;;;;;;;;14.58;84.00;100940.97;7354038;19;19986;-68
2024/01/24 00:51:46;;;;;;;;;;;;;;;14.59;83.25;100945.22;7356922;19;20018;-67
2024/01/24 00:54:14;;;;;;;;;;;;;;;14.58;83.16;100968.22;7355810;19;19926;-68
2024/01/24 00:56:41;;;;;;;;;;;;;;;14.58;83.19;100956.84;7352039;19;19944;-67
2024/01/24 00:59:08;;;;;;;;;;;;;;;14.61;83.70;100952.00;7338281;19;19919;-67
2024/01/24 01:01:35;;;;;;;;;;;;;;;14.61;81.69;100961.78;7352508;19;19925;-67
2024/01/24 01:04:03;;;;;;;;;;;;;;;14.61;81.61;100981.16;7349788;19;19926;-67
2024/01/24 01:06:31;;;;;;;;;;;;;;;14.61;81.91;100994.38;7359555;19;19937;-67
2024/01/24 01:09:00;;;;;;;;;;;;;;;14.55;80.17;101009.16;7343430;19;21736;-67
2024/01/24 01:11:26;;;;;;;;;;;;;;;14.52;80.03;101025.41;7348109;19;19919;-67
2024/01/24 01:13:54;;;;;;;;;;;;;;;14.52;80.24;101020.09;7340735;19;19991;-68
2024/01/24 01:16:21;;;;;;;;;;;;;;;14.54;79.20;101011.97;7336197;19;19930;-68
2024/01/24 01:18:48;;;;;;;;;;;;;;;14.50;77.53;101005.38;7337027;19;20628;-69
2024/01/24 01:21:14;;;;;;;;;;;;;;;14.51;78.24;101039.63;7354357;19;19927;-68
2024/01/24 01:23:41;;;;;;;;;;;;;;;14.50;78.63;101037.97;7350144;19;19915;-68
2024/01/24 01:26:08;;;;;;;;;;;;;;;14.52;78.85;101056.34;7356237;19;19998;-68
2024/01/24 01:28:35;;;;;;;;;;;;;;;14.48;78.12;101053.19;7355292;19;19915;-67
2024/01/24 01:31:02;;;;;;;;;;;;;;;14.48;76.25;101055.00;7357895;19;19918;-69
2024/01/24 01:33:29;;;;;;;;;;;;;;;14.46;74.55;101041.97;7352873;19;19927;-67
2024/01/24 01:35:56;;;;;;;;;;;;;;;14.48;74.96;101018.78;7346677;19;20019;-67
2024/01/24 01:38:43;;;;;;;;;;;;;;;14.42;74.58;101037.19;7328446;19;19922;-67
2024/01/24 01:41:09;;;;;;;;;;;;;;;14.40;74.77;101025.94;7339002;19;19923;-67
2024/01/24 01:43:36;;;;;;;;;;;;;;;14.40;72.83;101041.81;7348797;19;21114;-68
2024/01/24 01:46:10;;;;;;;;;;;;;;;14.38;73.53;101028.75;7343878;19;19915;-68
2024/01/24 01:48:37;;;;;;;;;;;;;;;14.37;72.56;101023.66;7330034;19;20006;-68
2024/01/24 01:51:05;;;;;;;;;;;;;;;14.31;71.92;101035.72;7338030;19;19951;-67
2024/01/24 01:53:38;;;;;;;;;;;;;;;14.34;72.12;101039.81;7341452;19;20281;-68
2024/01/24 01:56:10;;;;;;;;;;;;;;;14.29;72.26;101036.88;7348150;19;19998;-68
2024/01/24 01:58:38;;;;;;;;;;;;;;;14.26;73.03;101046.00;7347113;19;19931;-68
2024/01/24 02:01:06;;;;;;;;;;;;;;;14.25;72.15;101048.81;7352183;19;21617;-68
2024/01/24 02:03:33;;;;;;;;;;;;;;;14.25;73.26;101044.34;7353936;19;19919;-68
2024/01/24 02:06:00;;;;;;;;;;;;;;;14.28;72.95;101073.09;7353961;19;19919;-68
2024/01/24 02:08:27;;;;;;;;;;;;;;;14.25;71.77;101056.75;7355536;19;19926;-68
2024/01/24 02:10:54;;;;;;;;;;;;;;;14.23;72.04;101064.84;7348726;19;19926;-67
2024/01/24 02:13:21;;;;;;;;;;;;;;;14.18;73.29;101077.75;7344836;19;20009;-68
2024/01/24 02:15:48;;;;;;;;;;;;;;;14.18;73.40;101058.41;7345935;19;19923;-67
2024/01/24 02:18:15;;;;;;;;;;;;;;;14.16;73.03;101071.84;7344762;19;19915;-68
2024/01/24 02:20:42;;;;;;;;;;;;;;;14.10;73.04;101077.78;7337530;19;20679;-68
2024/01/24 02:23:11;;;;;;;;;;;;;;;14.09;71.90;101092.84;7339160;19;19934;-68
2024/01/24 02:25:38;;;;;;;;;;;;;;;14.11;73.20;101072.34;7339275;19;19926;-69
2024/01/24 02:28:05;;;;;;;;;;;;;;;14.13;73.14;101072.16;7339095;19;19990;-68
2024/01/24 02:30:32;;;;;;;;;;;;;;;14.15;73.82;101075.47;7349322;19;20747;-66
2024/01/24 02:32:59;;;;;;;;;;;;;;;14.11;72.06;101087.41;7333646;19;20391;-67
2024/01/24 02:35:27;;;;;;;;;;;;;;;14.13;72.89;101107.38;7345839;19;19930;-68
2024/01/24 02:37:54;;;;;;;;;;;;;;;14.07;70.88;101123.09;7343304;19;19947;-68
2024/01/24 02:40:21;;;;;;;;;;;;;;;14.05;69.71;101122.47;7341605;19;20288;-68
2024/01/24 02:42:48;;;;;;;;;;;;;;;14.06;69.71;101113.53;7338112;19;19915;-68
2024/01/24 02:45:23;;;;;;;;;;;;;;;14.07;71.96;101121.28;7349120;19;20090;-67
2024/01/24 02:47:50;;;;;;;;;;;;;;;14.05;70.83;101136.53;7340157;19;20002;-68
2024/01/24 02:50:17;;;;;;;;;;;;;;;14.03;68.79;101146.44;7349555;19;20015;-67
2024/01/24 02:52:44;;;;;;;;;;;;;;;14.04;70.35;101140.16;7347522;19;19925;-67
2024/01/24 02:55:17;;;;;;;;;;;;;;;14.00;69.46;101144.13;7341414;19;20006;-68
2024/01/24 02:57:44;;;;;;;;;;;;;;;13.95;69.64;101143.81;7348404;19;19998;-68
2024/01/24 03:00:12;;;;;;;;;;;;;;;13.93;68.85;101142.31;7354043;19;19923;-67
2024/01/24 03:02:40;;;;;;;;;;;;;;;13.90;67.78;101148.78;7346633;19;19915;-67
2024/01/24 03:05:10;;;;;;;;;;;;;;;13.89;68.05;101147.13;7353961;19;19927;-68
2024/01/24 03:07:40;;;;;;;;;;;;;;;13.82;67.52;101151.41;7343380;19;19927;-67
2024/01/24 03:10:08;;;;;;;;;;;;;;;13.81;69.16;101162.19;7342250;19;19942;-67
2024/01/24 03:12:35;;;;;;;;;;;;;;;13.75;67.58;101147.78;7338848;19;19919;-69
2024/01/24 03:15:02;;;;;;;;;;;;;;;13.70;68.15;101147.47;7345598;19;19922;-69
2024/01/24 03:17:28;;;;;;;;;;;;;;;13.66;69.60;101151.44;7343345;19;19927;-69
2024/01/24 03:19:55;;;;;;;;;;;;;;;13.58;68.28;101160.16;7341017;19;20186;-68
2024/01/24 03:22:24;;;;;;;;;;;;;;;13.57;69.18;101168.25;7342403;19;19929;-67
2024/01/24 03:24:52;;;;;;;;;;;;;;;13.54;69.32;101161.50;7339601;19;19930;-68
2024/01/24 03:27:19;;;;;;;;;;;;;;;13.56;69.74;101174.56;7346715;19;19923;-67
2024/01/24 03:29:46;;;;;;;;;;;;;;;13.53;68.58;101188.91;7341596;19;19933;-68
2024/01/24 03:32:13;;;;;;;;;;;;;;;13.54;68.00;101211.72;7339490;19;19919;-68
2024/01/24 03:34:40;;;;;;;;;;;;;;;13.51;69.81;101176.88;7343487;19;19982;-68
2024/01/24 03:37:07;;;;;;;;;;;;;;;13.50;71.24;101186.63;7335243;19;21132;-68
2024/01/24 03:39:35;;;;;;;;;;;;;;;13.48;69.58;101203.59;7339466;19;19922;-69
2024/01/24 03:42:03;;;;;;;;;;;;;;;13.47;71.05;101212.53;7335918;19;19927;-68
2024/01/24 03:44:30;;;;;;;;;;;;;;;13.44;70.00;101186.41;7341356;19;19918;-67
2024/01/24 03:46:57;;;;;;;;;;;;;;;13.43;69.36;101227.06;7342998;19;20626;-67
2024/01/24 03:49:24;;;;;;;;;;;;;;;13.44;69.89;101234.84;7343220;19;19930;-67
2024/01/24 03:51:51;;;;;;;;;;;;;;;13.45;70.67;101254.16;7346555;19;20006;-67
2024/01/24 03:54:19;;;;;;;;;;;;;;;13.47;70.90;101241.59;7330777;19;19964;-67
2024/01/24 03:56:46;;;;;;;;;;;;;;;13.42;69.44;101236.81;7343305;19;19930;-68
2024/01/24 03:59:13;;;;;;;;;;;;;;;13.42;68.57;101246.53;7338328;19;20267;-68
2024/01/24 04:01:40;;;;;;;;;;;;;;;13.35;69.15;101234.97;7332216;19;19933;-68
2024/01/24 04:04:07;;;;;;;;;;;;;;;13.34;70.20;101218.28;7331447;19;20494;-67
2024/01/24 04:06:35;;;;;;;;;;;;;;;13.34;69.54;101226.22;7346071;19;19940;-68
2024/01/24 04:09:06;;;;;;;;;;;;;;;13.32;69.61;101241.41;7347524;19;20041;-68
2024/01/24 04:11:32;;;;;;;;;;;;;;;13.28;69.54;101255.94;7352911;19;20007;-68
2024/01/24 04:14:02;;;;;;;;;;;;;;;13.30;69.81;101271.63;7347527;19;21055;-68
2024/01/24 04:16:29;;;;;;;;;;;;;;;13.26;69.71;101269.28;7346671;19;19955;-68
2024/01/24 04:18:56;;;;;;;;;;;;;;;13.24;71.44;101283.66;7350327;19;20421;-68
2024/01/24 04:21:23;;;;;;;;;;;;;;;13.19;69.54;101284.16;7350753;19;19923;-67
2024/01/24 04:23:50;;;;;;;;;;;;;;;13.18;70.46;101293.06;7347489;19;20769;-67
2024/01/24 04:26:20;;;;;;;;;;;;;;;13.16;70.20;101313.50;7348536;19;19982;-67
2024/01/24 04:28:47;;;;;;;;;;;;;;;13.16;70.52;101310.88;7345781;19;20249;-67
2024/01/24 04:31:14;;;;;;;;;;;;;;;13.17;71.71;101309.88;7353931;19;19919;-68
2024/01/24 04:33:40;;;;;;;;;;;;;;;13.17;71.71;101307.25;7347219;19;21576;-68
2024/01/24 04:36:09;;;;;;;;;;;;;;;13.10;70.68;101300.09;7338741;19;20331;-68
2024/01/24 04:38:39;;;;;;;;;;;;;;;13.06;71.54;101335.72;7347836;19;19929;-67
2024/01/24 04:41:08;;;;;;;;;;;;;;;13.05;70.68;101350.75;7344218;19;19937;-69
2024/01/24 04:43:38;;;;;;;;;;;;;;;12.99;70.16;101371.69;7350960;19;19915;-68
2024/01/24 04:46:11;;;;;;;;;;;;;;;13.00;71.28;101360.97;7354599;19;21878;-68
2024/01/24 04:48:38;;;;;;;;;;;;;;;13.01;71.74;101373.16;7346203;19;21167;-71
2024/01/24 04:51:05;;;;;;;;;;;;;;;12.97;71.33;101371.81;7352867;19;19919;-69
2024/01/24 04:53:32;;;;;;;;;;;;;;;13.01;71.64;101393.47;7351745;19;19923;-68
2024/01/24 04:55:59;;;;;;;;;;;;;;;13.01;72.84;101391.66;7343896;19;20341;-68
2024/01/24 04:58:26;;;;;;;;;;;;;;;13.02;73.37;101400.41;7343450;19;19923;-68
2024/01/24 05:00:53;;;;;;;;;;;;;;;13.04;72.17;101379.97;7346740;19;19922;-68
2024/01/24 05:03:21;;;;;;;;;;;;;;;13.03;71.74;101394.16;7344457;19;19926;-68
2024/01/24 05:05:47;;;;;;;;;;;;;;;13.03;72.63;101396.78;7350536;19;20260;-69
2024/01/24 05:08:23;;;;;;;;;;;;;;;13.01;72.18;101407.50;7342890;19;19929;-69
2024/01/24 05:10:50;;;;;;;;;;;;;;;13.01;72.26;101431.28;7348162;19;20454;-68
2024/01/24 05:13:18;;;;;;;;;;;;;;;13.03;71.73;101428.50;7344612;19;19922;-69
2024/01/24 05:15:44;;;;;;;;;;;;;;;13.01;71.85;101438.38;7346909;19;19926;-68
2024/01/24 05:18:11;;;;;;;;;;;;;;;13.02;72.11;101451.44;7343561;19;20319;-69
2024/01/24 05:20:38;;;;;;;;;;;;;;;13.08;72.02;101457.94;7343864;19;19933;-68
2024/01/24 05:23:07;;;;;;;;;;;;;;;13.07;71.83;101474.75;7338438;19;20372;-68
2024/01/24 05:25:33;;;;;;;;;;;;;;;13.06;72.49;101459.88;7343700;19;20361;-68
2024/01/24 05:28:00;;;;;;;;;;;;;;;13.04;73.07;101467.97;7347880;19;19922;-70
2024/01/24 05:30:27;;;;;;;;;;;;;;;13.02;72.01;101477.03;7340683;19;20006;-69
2024/01/24 05:33:02;;;;;;;;;;;;;;;13.01;71.68;101502.59;7346148;19;19926;-69
2024/01/24 05:35:28;;;;;;;;;;;;;;;13.02;72.37;101516.66;7345593;19;19939;-68
2024/01/24 05:37:56;;;;;;;;;;;;;;;12.99;71.54;101503.75;7340714;19;19933;-68
2024/01/24 05:40:23;;;;;;;;;;;;;;;12.95;71.61;101497.97;7341726;19;19922;-68
2024/01/24 05:42:50;;;;;;;;;;;;;;;12.97;72.63;101498.63;7343897;19;19918;-68
2024/01/24 05:45:19;;;;;;;;;;;;;;;12.97;72.56;101503.06;7344166;19;19918;-68
2024/01/24 05:47:46;;;;;;;;;;;;;;;12.98;72.92;101515.31;7349340;19;19919;-70
2024/01/24 05:50:13;;;;;;;;;;;;;;;12.96;72.09;101520.72;7350852;19;19927;-68
2024/01/24 05:52:40;;;;;;;;;;;;;;;12.97;71.52;101527.69;7344011;19;19922;-68
2024/01/24 05:55:13;;;;;;;;;;;;;;;12.94;70.98;101533.28;7342300;19;19918;-68
2024/01/24 05:57:41;;;;;;;;;;;;;;;12.95;72.56;101545.50;7332064;19;19911;-68
2024/01/24 06:00:10;;;;;;;;;;;;;;;12.94;72.61;101543.00;7335498;19;19949;-68
2024/01/24 06:02:37;;;;;;;;;;;;;;;12.91;71.41;101548.56;7342767;19;20031;-69
2024/01/24 06:05:04;;;;;;;;;;;;;;;12.93;71.88;101576.50;7346088;19;20673;-69
2024/01/24 06:07:31;;;;;;;;;;;;;;;12.93;72.13;101573.03;7345879;19;20802;-68
2024/01/24 06:09:58;;;;;;;;;;;;;;;12.93;71.96;101567.75;7344547;19;20661;-67
2024/01/24 06:12:25;;;;;;;;;;;;;;;12.95;72.29;101569.28;7344421;19;19911;-67
2024/01/24 06:14:54;;;;;;;;;;;;;;;12.96;72.58;101580.66;7341417;19;20463;-68
2024/01/24 06:17:22;;;;;;;;;;;;;;;12.96;72.53;101599.97;7341635;19;20629;-69
2024/01/24 06:19:52;;;;;;;;;;;;;;;12.96;72.23;101607.06;7350114;19;19941;-68
2024/01/24 06:22:19;;;;;;;;;;;;;;;12.95;73.76;101606.25;7353610;19;20437;-68
2024/01/24 06:24:46;;;;;;;;;;;;;;;12.95;72.60;101606.25;7352871;19;19923;-69
2024/01/24 06:27:14;;;;;;;;;;;;;;;12.95;72.68;101616.84;7340734;19;19910;-68
2024/01/24 06:29:41;;;;;;;;;;;;;;;12.90;72.66;101600.56;7344394;19;19918;-68
2024/01/24 06:32:27;;;;;;;;;;;;;;;12.92;74.52;101609.19;7339893;19;19951;-68
2024/01/24 06:34:54;;;;;;;;;;;;;;;12.87;73.62;101611.44;7337492;19;19910;-68
2024/01/24 06:37:21;;;;;;;;;;;;;;;12.84;72.83;101623.16;7346195;19;20041;-69
2024/01/24 06:39:48;;;;;;;;;;;;;;;12.78;73.21;101622.91;7341890;19;19941;-68
2024/01/24 06:42:15;;;;;;;;;;;;;;;12.77;73.14;101632.63;7343920;19;20280;-69
2024/01/24 06:44:42;;;;;;;;;;;;;;;12.79;74.47;101650.97;7342087;19;20332;-68
2024/01/24 06:47:11;;;;;;;;;;;;;;;12.81;73.48;101662.19;7331538;19;20561;-69
2024/01/24 06:49:37;;;;;;;;;;;;;;;12.76;73.70;101667.94;7339352;19;19914;-69
2024/01/24 06:52:05;;;;;;;;;;;;;;;12.79;73.62;101672.09;7345570;19;19935;-68
2024/01/24 06:54:35;;;;;;;;;;;;;;;12.77;73.22;101684.59;7341560;19;20547;-69
2024/01/24 06:57:03;;;;;;;;;;;;;;;12.75;73.23;101687.38;7347048;19;19919;-68
2024/01/24 06:59:31;;;;;;;;;;;;;;;12.75;73.50;101692.66;7354366;19;20407;-68
2024/01/24 07:01:59;;;;;;;;;;;;;;;12.76;73.40;101714.63;7350157;19;19990;-69
2024/01/24 07:04:26;;;;;;;;;;;;;;;12.76;73.77;101706.72;7350706;19;19923;-68
2024/01/24 07:06:53;;;;;;;;;;;;;;;12.74;73.56;101706.03;7349793;19;20580;-68
2024/01/24 07:09:20;;;;;;;;;;;;;;;12.75;73.42;101716.44;7338021;19;19922;-67
2024/01/24 07:11:47;;;;;;;;;;;;;;;12.74;73.18;101706.03;7341077;19;20187;-69
2024/01/24 07:14:14;;;;;;;;;;;;;;;12.71;73.49;101709.78;7342928;19;19991;-69
2024/01/24 07:16:43;;;;;;;;;;;;;;;12.74;73.71;101714.78;7346429;19;19922;-68
2024/01/24 07:19:09;;;;;;;;;;;;;;;12.78;74.61;101717.97;7342441;19;19910;-68
2024/01/24 07:21:36;;;;;;;;;;;;;;;12.77;74.56;101724.22;7349036;19;19922;-68
2024/01/24 07:24:04;;;;;;;;;;;;;;;12.77;73.92;101722.41;7342926;19;19918;-68
2024/01/24 07:26:30;;;;;;;;;;;;;;;12.77;74.26;101734.78;7348317;19;19939;-67
2024/01/24 07:28:57;;;;;;;;;;;;;;;12.74;74.19;101738.56;7340654;19;20567;-68
2024/01/24 07:31:24;;;;;;;;;;;;;;;12.71;74.96;101738.00;7343511;19;19915;-68
2024/01/24 07:33:51;;;;;;;;;;;;;;;12.72;75.29;101740.50;7347508;19;19918;-68
2024/01/24 07:36:21;;;;;;;;;;;;;;;12.75;75.39;101740.19;7348337;19;19915;-67
2024/01/24 07:38:48;;;;;;;;;;;;;;;12.75;75.06;101752.56;7341075;19;19945;-68
2024/01/24 07:41:15;;;;;;;;;;;;;;;12.72;75.62;101748.41;7340335;19;20017;-69
2024/01/24 07:43:42;;;;;;;;;;;;;;;12.72;75.58;101750.22;7342000;19;19922;-68
2024/01/24 07:46:09;;;;;;;;;;;;;;;12.71;76.02;101765.25;7345397;19;19918;-69
2024/01/24 07:48:36;;;;;;;;;;;;;;;12.71;76.09;101751.19;7341971;19;19940;-68
2024/01/24 07:51:04;;;;;;;;;;;;;;;12.70;76.10;101741.59;7350450;19;19911;-68
2024/01/24 07:53:31;;;;;;;;;;;;;;;12.62;75.85;101775.81;7346221;19;20291;-67
2024/01/24 07:56:00;;;;;;;;;;;;;;;12.58;75.88;101758.63;7341410;19;19922;-69
2024/01/24 07:58:41;;;;;;;;;;;;;;;12.54;76.39;101757.25;7348627;19;19918;-68
2024/01/24 08:01:09;;;;;;;;;;;;;;;12.58;77.43;101750.69;7359739;19;19927;-68
2024/01/24 08:03:37;;;;;;;;;;;;;;;12.72;87.38;101750.22;7349983;19;20372;-69
2024/01/24 08:06:04;;;;;;;;;;;;;;;12.67;79.87;101755.09;7343688;19;19923;-69
2024/01/24 08:08:31;;;;;;;;;;;;;;;12.77;82.20;101754.09;7341709;19;19922;-68
2024/01/24 08:10:58;;;;;;;;;;;;;;;12.72;75.31;101763.44;7346338;19;19923;-68
2024/01/24 08:13:25;;;;;;;;;;;;;;;12.68;76.67;101785.81;7356011;19;19934;-68
2024/01/24 08:15:53;;;;;;;;;;;;;;;12.66;76.08;101787.75;7358754;19;19915;-68
2024/01/24 08:18:20;;;;;;;;;;;;;;;12.65;76.93;101807.22;7352776;19;19935;-68
2024/01/24 08:20:47;;;;;;;;;;;;;;;12.68;77.25;101802.50;7352015;19;21200;-68
2024/01/24 08:23:14;;;;;;;;;;;;;;;12.62;75.94;101795.16;7345199;19;19983;-68
2024/01/24 08:25:41;;;;;;;;;;;;;;;12.61;76.19;101788.19;7347817;19;19919;-67
2024/01/24 08:28:08;;;;;;;;;;;;;;;12.59;75.64;101787.53;7347728;19;19918;-69
2024/01/24 08:30:36;;;;;;;;;;;;;;;12.61;76.06;101803.19;7354105;19;19938;-68
2024/01/24 08:33:03;;;;;;;;;;;;;;;12.63;76.02;101817.09;7347011;19;19926;-69
2024/01/24 08:35:33;;;;;;;;;;;;;;;12.64;77.16;101821.41;7345103;19;20667;-68
2024/01/24 08:38:00;;;;;;;;;;;;;;;12.64;76.03;101827.53;7350391;19;21245;-68
2024/01/24 08:40:27;;;;;;;;;;;;;;;12.67;76.82;101826.41;7350234;19;19911;-68
2024/01/24 08:42:54;;;;;;;;;;;;;;;12.66;76.59;101830.84;7345716;19;19926;-67
2024/01/24 08:45:25;;;;;;;;;;;;;;;12.68;75.88;101843.91;7346059;19;21674;-68
2024/01/24 08:47:52;;;;;;;;;;;;;;;12.66;75.86;101864.34;7343143;19;19929;-69
2024/01/24 08:50:19;;;;;;;;;;;;;;;12.65;76.09;101837.09;7352598;19;19942;-70
2024/01/24 08:52:46;;;;;;;;;;;;;;;12.64;75.33;101846.03;7350064;19;19974;-68
2024/01/24 08:55:17;;;;;;;;;;;;;;;12.64;76.46;101847.81;7350314;19;19972;-68
2024/01/24 08:57:48;;;;;;;;;;;;;;;12.70;77.69;101863.06;7354979;19;19919;-69
2024/01/24 09:00:16;;;;;;;;;;;;;;;12.70;76.05;101860.44;7357530;19;19927;-68
2024/01/24 09:02:43;;;;;;;;;;;;;;;12.68;75.57;101867.69;7340070;19;19922;-67
2024/01/24 09:05:19;;;;;;;;;;;;;;;12.65;75.55;101867.94;7344831;19;19919;-68
2024/01/24 09:07:50;;;;;;;;;;;;;;;12.63;76.02;101869.91;7347538;19;20374;-68
2024/01/24 09:10:17;;;;;;;;;;;;;;;12.63;76.15;101873.38;7336451;19;19923;-69
2024/01/24 09:12:44;;;;;;;;;;;;;;;12.65;76.83;101878.50;7346737;19;19930;-69
2024/01/24 09:15:11;;;;;;;;;;;;;;;12.72;77.79;101884.91;7347106;19;20348;-69
2024/01/24 09:17:38;;;;;;;;;;;;;;;12.75;77.63;101896.00;7349586;19;20046;-67
2024/01/24 09:20:06;;;;;;;;;;;;;;;12.78;76.31;101890.47;7347338;19;20570;-68
2024/01/24 09:22:34;;;;;;;;;;;;;;;12.80;76.08;101887.66;7348025;19;20016;-69
2024/01/24 09:25:01;;;;;;;;;;;;;;;12.80;76.53;101903.50;7346199;19;19926;-69
2024/01/24 09:27:33;;;;;;;;;;;;;;;12.78;75.95;101902.84;7349450;19;19926;-69
2024/01/24 09:30:00;;;;;;;;;;;;;;;12.71;75.36;101885.88;7341078;19;19911;-70
2024/01/24 09:32:27;;;;;;;;;;;;;;;12.77;76.63;101894.09;7345831;19;21533;-69
2024/01/24 09:34:54;;;;;;;;;;;;;;;12.80;77.48;101906.16;7352703;19;19930;-67
2024/01/24 09:37:21;;;;;;;;;;;;;;;12.85;76.49;101904.75;7345108;19;20859;-68
2024/01/24 09:39:49;;;;;;;;;;;;;;;12.88;76.26;101903.66;7341185;19;20062;-69
2024/01/24 09:42:23;;;;;;;;;;;;;;;12.87;75.47;101904.63;7350350;19;20089;-69
2024/01/24 09:44:51;;;;;;;;;;;;;;;12.91;76.26;101924.50;7341040;19;20413;-68
2024/01/24 09:47:21;;;;;;;;;;;;;;;12.87;74.71;101936.34;7347949;19;19919;-68
2024/01/24 09:49:48;;;;;;;;;;;;;;;12.86;74.57;101953.97;7341989;19;19946;-68
2024/01/24 09:52:17;;;;;;;;;;;;;;;12.85;74.51;101962.88;7345557;19;19936;-69
2024/01/24 09:54:44;;;;;;;;;;;;;;;12.86;73.92;101964.53;7331611;19;19919;-68
2024/01/24 09:57:12;;;;;;;;;;;;;;;12.83;74.25;101975.41;7336627;19;20022;-68
2024/01/24 09:59:39;;;;;;;;;;;;;;;12.81;74.35;101984.44;7347410;19;20924;-68
2024/01/24 10:02:07;;;;;;;;;;;;;;;12.83;74.89;101970.13;7346906;19;19926;-68
2024/01/24 10:04:37;;;;;;;;;;;;;;;12.86;74.96;101980.41;7345605;19;19922;-69
2024/01/24 10:07:07;;;;;;;;;;;;;;;12.87;74.49;101975.94;7345762;19;19922;-68
2024/01/24 10:09:34;;;;;;;;;;;;;;;12.92;74.90;101978.19;7346645;19;19919;-69
2024/01/24 10:12:01;;;;;;;;;;;;;;;12.92;74.33;101988.75;7343475;19;20018;-68
2024/01/24 10:14:28;;;;;;;;;;;;;;;12.86;74.26;101990.97;7342661;19;21796;-68
2024/01/24 10:16:57;;;;;;;;;;;;;;;12.93;75.11;101999.19;7344085;19;20810;-69
2024/01/24 10:19:24;;;;;;;;;;;;;;;12.97;75.89;102005.84;7342705;19;19915;-69
2024/01/24 10:21:52;;;;;;;;;;;;;;;12.99;74.51;102001.28;7346431;19;19927;-67
2024/01/24 10:24:19;;;;;;;;;;;;;;;13.02;75.33;102006.25;7341623;19;19930;-68
2024/01/24 10:26:46;;;;;;;;;;;;;;;13.03;73.70;101996.53;7355331;19;20758;-68
2024/01/24 10:29:13;;;;;;;;;;;;;;;13.08;75.09;102004.88;7355082;19;19915;-68
2024/01/24 10:31:41;;;;;;;;;;;;;;;13.08;73.90;102031.28;7347367;19;19936;-68
2024/01/24 10:34:08;;;;;;;;;;;;;;;13.08;73.81;102034.78;7342485;19;19922;-68
2024/01/24 10:36:38;;;;;;;;;;;;;;;13.03;73.66;102037.00;7336956;19;19958;-69
2024/01/24 10:39:11;;;;;;;;;;;;;;;13.15;74.04;102046.50;7337003;19;19919;-68
2024/01/24 10:41:42;;;;;;;;;;;;;;;13.14;73.51;102034.25;7335445;19;19918;-68
2024/01/24 10:44:10;;;;;;;;;;;;;;;13.20;74.59;102019.66;7342754;19;19918;-68
2024/01/24 10:46:38;;;;;;;;;;;;;;;13.23;74.30;102011.44;7342370;19;19933;-68
2024/01/24 10:49:09;;;;;;;;;;;;;;;13.25;73.16;102017.44;7339029;19;19918;-70
2024/01/24 10:51:36;;;;;;;;;;;;;;;13.32;74.46;102025.59;7348147;19;19911;-68
2024/01/24 10:54:04;;;;;;;;;;;;;;;13.34;73.00;102021.03;7347018;19;19915;-67
2024/01/24 10:56:32;;;;;;;;;;;;;;;13.38;73.67;102015.31;7344405;19;19926;-68
2024/01/24 10:59:02;;;;;;;;;;;;;;;13.38;72.89;102023.25;7344047;19;21059;-69
2024/01/24 11:01:29;;;;;;;;;;;;;;;13.39;72.93;102027.56;7349881;19;19919;-68
2024/01/24 11:03:56;;;;;;;;;;;;;;;13.40;72.12;102023.94;7343350;19;19933;-68
2024/01/24 11:06:25;;;;;;;;;;;;;;;13.41;72.05;102030.06;7350186;19;19937;-68
2024/01/24 11:09:01;;;;;;;;;;;;;;;13.41;71.77;102038.81;7340561;19;19919;-68
2024/01/24 11:11:31;;;;;;;;;;;;;;;13.46;72.17;102022.53;7340790;19;20348;-68
2024/01/24 11:14:03;;;;;;;;;;;;;;;13.46;71.43;102027.84;7343768;19;20470;-68
2024/01/24 11:16:31;;;;;;;;;;;;;;;13.46;71.70;102026.00;7347211;19;19930;-68
2024/01/24 11:19:01;;;;;;;;;;;;;;;13.50;71.25;102026.56;7340196;19;21064;-69
2024/01/24 11:21:29;;;;;;;;;;;;;;;13.55;71.05;102032.25;7349369;19;21948;-68
2024/01/24 11:23:59;;;;;;;;;;;;;;;13.59;71.48;102036.28;7342177;19;19954;-67
2024/01/24 11:26:26;;;;;;;;;;;;;;;13.59;70.14;102044.22;7346699;19;19925;-68
2024/01/24 11:29:04;;;;;;;;;;;;;;;13.59;70.23;102050.34;7347351;19;20531;-68
2024/01/24 11:31:42;;;;;;;;;;;;;;;13.57;69.61;102051.44;7346970;19;19958;-68
2024/01/24 11:34:12;;;;;;;;;;;;;;;13.62;69.66;102073.00;7344347;19;19922;-68
2024/01/24 11:36:47;;;;;;;;;;;;;;;13.65;70.27;102064.81;7350402;19;20804;-68
2024/01/24 11:39:37;;;;;;;;;;;;;;;13.68;69.43;102075.94;7340917;19;19918;-69
2024/01/24 11:42:24;;;;;;;;;;;;;;;13.63;68.47;102091.41;7340384;19;20565;-68
2024/01/24 11:44:54;;;;;;;;;;;;;;;13.64;68.41;102079.84;7347822;19;19986;-66
2024/01/24 11:47:22;;;;;;;;;;;;;;;13.70;67.63;102081.94;7338511;19;20536;-69
2024/01/24 11:49:52;;;;;;;;;;;;;;;13.71;67.59;102080.94;7342784;19;19922;-67
2024/01/24 11:52:22;;;;;;;;;;;;;;;13.74;67.58;102105.44;7340579;19;19923;-68
2024/01/24 11:54:50;;;;;;;;;;;;;;;13.75;67.38;102099.19;7339048;19;19978;-68
2024/01/24 11:57:18;;;;;;;;;;;;;;;13.77;68.77;102091.91;7340615;19;20775;-67
2024/01/24 11:59:45;;;;;;;;;;;;;;;13.82;67.13;102093.16;7341841;19;19943;-68
2024/01/24 12:02:12;;;;;;;;;;;;;;;13.80;66.23;102092.50;7345499;19;20371;-68
2024/01/24 12:04:39;;;;;;;;;;;;;;;13.84;67.41;102103.63;7340328;19;20006;-67
2024/01/24 12:07:07;;;;;;;;;;;;;;;13.83;66.18;102096.66;7343193;19;19926;-68
2024/01/24 12:09:34;;;;;;;;;;;;;;;13.83;66.28;102094.84;7339274;19;19923;-70
2024/01/24 12:12:04;;;;;;;;;;;;;;;13.77;66.56;102092.75;7343717;19;19927;-68
2024/01/24 12:14:31;;;;;;;;;;;;;;;13.77;67.43;102092.75;7336474;19;19923;-68
2024/01/24 12:16:58;;;;;;;;;;;;;;;13.78;67.70;102093.59;7339464;19;19919;-68
2024/01/24 12:19:26;;;;;;;;;;;;;;;13.81;68.53;102096.81;7342784;19;19918;-68
2024/01/24 12:21:53;;;;;;;;;;;;;;;13.83;67.80;102091.34;7346048;19;19927;-68
2024/01/24 12:24:21;;;;;;;;;;;;;;;13.86;67.68;102085.81;7340848;19;19922;-68
2024/01/24 12:26:48;;;;;;;;;;;;;;;13.85;68.02;102084.13;7346036;19;19941;-68
2024/01/24 12:29:20;;;;;;;;;;;;;;;13.83;67.32;102084.25;7336686;19;19914;-67
2024/01/24 12:31:48;;;;;;;;;;;;;;;13.82;67.93;102087.03;7344939;19;20681;-67
2024/01/24 12:34:21;;;;;;;;;;;;;;;13.81;67.27;102083.59;7338433;19;19929;-67
2024/01/24 12:36:51;;;;;;;;;;;;;;;13.80;67.11;102089.00;7345115;19;19927;-69
2024/01/24 12:39:25;;;;;;;;;;;;;;;13.82;67.67;102082.59;7341180;19;19922;-67